Time;durP1;ratioP1;P1;durP2;ratioP2;P2;SDS_P1;SDS_P2;PMS_P1;PMS_P2;Temp;Humidity;BMP_temperature;BMP_pressure;BME280_temperature;BME280_humidity;BME280_pressure;Samples;Min_cycle;Max_cycle;Signal;HPM_P1;HPM_P2
2023/09/19 00:00:26;;;;;;;7.00;2.60;;;18.10;99.90;;;;;;5054098;28;20416;-73
2023/09/19 00:03:01;;;;;;;2.87;2.10;;;18.10;99.90;;;;;;5054492;28;20769;-72
2023/09/19 00:05:28;;;;;;;5.23;2.97;;;18.00;99.90;;;;;;5054082;28;20418;-72
2023/09/19 00:07:58;;;;;;;2.17;1.97;;;18.10;99.90;;;;;;5054654;28;20460;-72
2023/09/19 00:10:24;;;;;;;3.40;2.20;;;18.00;99.90;;;;;;5057067;28;20528;-72
2023/09/19 00:12:58;;;;;;;2.40;2.20;;;18.00;99.90;;;;;;5053955;28;20414;-72
2023/09/19 00:15:24;;;;;;;6.27;2.67;;;18.00;99.90;;;;;;5053765;28;20419;-72
2023/09/19 00:17:54;;;;;;;3.60;2.00;;;18.00;99.90;;;;;;5053731;28;20541;-71
2023/09/19 00:20:22;;;;;;;3.80;2.43;;;17.90;99.90;;;;;;5051991;28;20458;-72
2023/09/19 00:22:51;;;;;;;3.83;2.40;;;18.00;99.90;;;;;;5053793;28;20443;-72
2023/09/19 00:25:18;;;;;;;2.50;2.00;;;17.90;99.90;;;;;;5053764;28;20935;-71
2023/09/19 00:27:44;;;;;;;2.83;2.43;;;17.90;99.90;;;;;;5073325;28;20909;-73
2023/09/19 00:30:19;;;;;;;3.67;2.10;;;17.90;99.90;;;;;;5074430;28;20413;-72
2023/09/19 00:32:47;;;;;;;2.77;2.23;;;17.90;99.90;;;;;;5073513;28;20408;-72
2023/09/19 00:35:16;;;;;;;3.33;2.60;;;17.90;99.90;;;;;;5072664;28;20421;-72
2023/09/19 00:37:43;;;;;;;2.50;2.30;;;17.80;99.90;;;;;;5064368;28;20466;-73
2023/09/19 00:40:15;;;;;;;3.23;2.20;;;17.80;99.90;;;;;;5083463;22;20511;-71
2023/09/19 00:42:42;;;;;;;3.00;2.70;;;17.80;99.90;;;;;;5062130;28;20420;-71
2023/09/19 00:45:12;;;;;;;3.73;2.53;;;17.80;99.90;;;;;;5066756;28;20767;-71
2023/09/19 00:47:43;;;;;;;4.00;2.20;;;17.80;99.90;;;;;;5062288;28;20445;-72
2023/09/19 00:50:10;;;;;;;3.50;1.83;;;17.70;99.90;;;;;;5060026;28;20444;-72
2023/09/19 00:52:38;;;;;;;4.40;2.10;;;17.80;99.90;;;;;;5060488;28;20424;-71
2023/09/19 00:55:08;;;;;;;3.00;2.43;;;17.70;99.90;;;;;;5056752;28;20434;-71
2023/09/19 00:57:36;;;;;;;5.03;2.63;;;17.70;99.90;;;;;;5061429;28;20867;-71
2023/09/19 01:00:07;;;;;;;4.83;2.67;;;17.70;99.90;;;;;;5063513;28;20440;-71
2023/09/19 01:02:33;;;;;;;4.17;2.60;;;17.70;99.90;;;;;;5062195;28;20528;-71
2023/09/19 01:05:00;;;;;;;3.37;1.90;;;17.70;99.90;;;;;;5060292;28;20916;-73
2023/09/19 01:07:35;;;;;;;2.33;2.13;;;17.70;99.90;;;;;;5060044;28;20427;-72
2023/09/19 01:10:09;;;;;;;3.37;1.97;;;17.70;99.90;;;;;;5063371;28;20457;-71
2023/09/19 01:12:45;;;;;;;4.00;2.20;;;17.60;99.90;;;;;;5057936;28;20476;-70
2023/09/19 01:15:28;;;;;;;4.30;2.87;;;17.60;99.90;;;;;;5063076;28;20474;-69
2023/09/19 01:18:15;;;;;;;3.37;2.10;;;17.60;99.90;;;;;;5051963;28;20467;-71
2023/09/19 01:21:04;;;;;;;2.23;2.03;;;17.60;99.90;;;;;;5061449;28;20923;-71
2023/09/19 01:23:54;;;;;;;3.30;2.10;;;17.60;99.90;;;;;;5062099;28;20449;-72
2023/09/19 01:26:51;;;;;;;3.20;2.30;;;17.50;99.90;;;;;;5058094;28;20476;-72
2023/09/19 01:29:39;;;;;;;2.40;2.03;;;17.60;99.90;;;;;;5052726;28;20548;-72
2023/09/19 01:32:06;;;;;;;2.37;2.00;;;17.60;99.90;;;;;;5052908;28;20522;-71
2023/09/19 01:34:48;;;;;;;3.00;2.27;;;17.60;99.90;;;;;;5060023;28;20497;-72
2023/09/19 01:37:20;;;;;;;4.27;2.53;;;17.70;99.90;;;;;;5062634;28;20433;-71
2023/09/19 01:39:51;;;;;;;2.40;2.03;;;17.70;99.90;;;;;;5059594;28;20537;-71
2023/09/19 01:42:23;;;;;;;2.57;2.30;;;17.70;99.90;;;;;;5059025;28;20437;-71
2023/09/19 01:45:06;;;;;;;2.77;1.90;;;17.70;99.90;;;;;;5051347;28;20610;-71
2023/09/19 01:47:53;;;;;;;2.73;2.03;;;17.70;99.90;;;;;;5050825;28;20421;-71
2023/09/19 01:50:34;;;;;;;4.47;2.00;;;17.70;99.90;;;;;;5070654;28;20447;-72
2023/09/19 01:53:09;;;;;;;7.10;2.73;;;17.80;99.90;;;;;;5056302;28;20746;-71
2023/09/19 01:55:37;;;;;;;3.23;2.23;;;17.80;99.90;;;;;;5070712;28;20407;-72
2023/09/19 01:58:19;;;;;;;3.60;2.00;;;17.70;99.90;;;;;;5070612;28;20457;-72
2023/09/19 02:00:50;;;;;;;4.97;1.70;;;17.80;99.90;;;;;;5052387;28;20519;-71
2023/09/19 02:03:16;;;;;;;3.00;1.80;;;17.70;99.90;;;;;;5050601;28;20421;-72
2023/09/19 02:05:47;;;;;;;4.00;2.20;;;17.70;99.90;;;;;;5050419;28;20414;-71
2023/09/19 02:08:19;;;;;;;3.70;1.73;;;17.70;99.90;;;;;;5050931;28;20887;-72
2023/09/19 02:10:48;;;;;;;4.10;2.20;;;17.70;99.90;;;;;;5050330;28;20452;-72
2023/09/19 02:13:19;;;;;;;4.93;2.07;;;17.70;99.90;;;;;;5050575;28;20426;-71
2023/09/19 02:15:44;;;;;;;2.60;1.70;;;17.60;99.90;;;;;;5049198;28;20472;-72
2023/09/19 02:18:11;;;;;;;3.00;2.00;;;17.60;99.90;;;;;;5049548;28;20504;-70
2023/09/19 02:20:37;;;;;;;3.00;2.43;;;17.50;99.90;;;;;;5050492;28;20200;-72
2023/09/19 02:23:03;;;;;;;2.60;2.37;;;17.50;99.90;;;;;;5050577;28;20506;-72
2023/09/19 02:25:30;;;;;;;5.10;2.27;;;17.50;99.90;;;;;;5050399;28;20609;-71
2023/09/19 02:27:58;;;;;;;5.10;2.50;;;17.50;99.90;;;;;;5050945;28;20497;-70
2023/09/19 02:30:25;;;;;;;7.03;2.30;;;17.40;99.90;;;;;;5050971;28;20445;-71
2023/09/19 02:32:51;;;;;;;4.37;2.60;;;17.40;99.90;;;;;;5052086;28;20958;-71
2023/09/19 02:35:19;;;;;;;2.03;1.80;;;17.40;99.90;;;;;;5048787;28;20461;-71
2023/09/19 02:37:45;;;;;;;1.80;1.70;;;17.30;99.90;;;;;;5051292;28;20835;-71
2023/09/19 02:40:21;;;;;;;2.30;2.10;;;17.30;99.90;;;;;;5069742;28;20802;-71
2023/09/19 02:42:54;;;;;;;4.10;2.10;;;17.30;99.90;;;;;;5070135;28;20426;-72
2023/09/19 02:45:20;;;;;;;4.57;1.77;;;17.30;99.90;;;;;;5069887;28;20443;-72
2023/09/19 02:47:46;;;;;;;3.53;2.10;;;17.20;99.90;;;;;;5070107;28;20428;-72
2023/09/19 02:50:16;;;;;;;3.20;2.30;;;17.30;99.90;;;;;;5059347;28;20469;-71
2023/09/19 02:52:49;;;;;;;3.10;2.17;;;17.20;99.90;;;;;;5047777;28;20423;-72
2023/09/19 02:55:17;;;;;;;4.50;2.50;;;17.20;99.90;;;;;;5049691;28;20421;-71
2023/09/19 02:57:50;;;;;;;2.20;2.00;;;17.10;99.90;;;;;;5049667;28;20562;-71
2023/09/19 03:00:21;;;;;;;2.10;2.00;;;17.10;99.90;;;;;;5050920;28;20454;-72
2023/09/19 03:02:54;;;;;;;2.60;2.03;;;17.10;99.90;;;;;;5053725;28;20418;-70
2023/09/19 03:05:21;;;;;;;5.10;2.50;;;17.10;99.90;;;;;;5053740;28;20424;-71
2023/09/19 03:07:53;;;;;;;3.17;1.97;;;17.10;99.90;;;;;;5053694;28;20523;-70
2023/09/19 03:10:20;;;;;;;3.07;2.77;;;17.10;99.90;;;;;;5053627;28;20443;-71
2023/09/19 03:12:47;;;;;;;5.00;2.37;;;17.10;99.90;;;;;;5053292;28;20591;-72
2023/09/19 03:15:15;;;;;;;2.23;1.83;;;17.10;99.90;;;;;;5053522;28;20425;-71
2023/09/19 03:17:44;;;;;;;4.07;2.23;;;17.10;99.90;;;;;;5048729;28;20445;-71
2023/09/19 03:20:12;;;;;;;5.93;1.80;;;17.20;99.90;;;;;;5052796;28;20445;-71
2023/09/19 03:22:39;;;;;;;2.53;1.80;;;17.20;99.90;;;;;;5052906;28;20765;-71
2023/09/19 03:25:07;;;;;;;2.93;1.80;;;17.20;99.90;;;;;;5053290;28;20416;-70
2023/09/19 03:27:34;;;;;;;1.60;1.47;;;17.30;99.90;;;;;;5053066;28;20406;-70
2023/09/19 03:30:00;;;;;;;3.17;1.80;;;17.30;99.90;;;;;;5053263;28;20428;-72
2023/09/19 03:32:26;;;;;;;3.00;1.90;;;17.20;99.90;;;;;;5053392;28;20984;-72
2023/09/19 03:34:52;;;;;;;2.40;2.17;;;17.20;99.90;;;;;;5053249;28;20405;-71
2023/09/19 03:37:17;;;;;;;1.50;1.40;;;17.30;99.90;;;;;;5051559;28;20265;-72
2023/09/19 03:39:43;;;;;;;2.20;1.60;;;17.30;99.90;;;;;;5052909;28;20581;-71
2023/09/19 03:42:09;;;;;;;2.63;1.80;;;17.30;99.90;;;;;;5053000;28;20484;-71
2023/09/19 03:44:35;;;;;;;2.37;1.77;;;17.20;99.90;;;;;;5051336;28;20172;-72
2023/09/19 03:47:01;;;;;;;3.70;1.70;;;17.30;99.90;;;;;;5052995;28;20460;-71
2023/09/19 03:49:26;;;;;;;3.33;1.90;;;17.30;99.90;;;;;;5053007;28;20231;-72
2023/09/19 03:51:52;;;;;;;1.40;1.30;;;17.30;99.90;;;;;;5050806;28;20183;-71
2023/09/19 03:54:19;;;;;;;4.53;1.87;;;17.30;99.90;;;;;;5053197;28;20178;-71
2023/09/19 03:56:45;;;;;;;2.80;1.80;;;17.20;99.90;;;;;;5052759;28;20417;-72
2023/09/19 03:59:11;;;;;;;1.60;1.50;;;17.30;99.90;;;;;;5052726;28;20478;-72
2023/09/19 04:01:37;;;;;;;2.37;1.60;;;17.30;99.90;;;;;;5052557;28;20423;-71
2023/09/19 04:04:09;;;;;;;1.67;1.47;;;17.30;99.90;;;;;;5052576;28;20899;-71
2023/09/19 04:06:35;;;;;;;1.70;1.60;;;17.20;99.90;;;;;;5050985;28;20427;-71
2023/09/19 04:09:04;;;;;;;2.63;1.73;;;17.10;99.90;;;;;;5050419;28;20437;-72
2023/09/19 04:11:30;;;;;;;2.33;2.13;;;17.10;99.90;;;;;;5051330;28;20182;-71
2023/09/19 04:13:56;;;;;;;1.93;1.60;;;17.20;99.90;;;;;;5052079;28;20523;-70
2023/09/19 04:16:22;;;;;;;2.33;1.90;;;17.10;99.90;;;;;;5052328;28;20453;-71
2023/09/19 04:18:48;;;;;;;2.23;1.40;;;17.10;99.90;;;;;;5052282;28;20881;-72
2023/09/19 04:21:13;;;;;;;4.97;1.73;;;17.00;99.90;;;;;;5052020;28;20201;-71
2023/09/19 04:23:39;;;;;;;2.00;1.47;;;17.00;99.90;;;;;;5050240;28;20249;-71
2023/09/19 04:26:04;;;;;;;2.93;1.87;;;16.90;99.90;;;;;;5052086;28;20177;-71
2023/09/19 04:28:31;;;;;;;3.80;1.50;;;16.90;99.90;;;;;;5052107;28;20171;-71
2023/09/19 04:30:58;;;;;;;2.20;1.50;;;16.90;99.90;;;;;;5052134;28;20192;-72
2023/09/19 04:33:24;;;;;;;3.87;1.90;;;16.90;99.90;;;;;;5052328;28;20955;-72
2023/09/19 04:35:50;;;;;;;2.00;1.80;;;16.90;99.90;;;;;;5052036;28;20437;-72
2023/09/19 04:38:18;;;;;;;2.20;1.63;;;16.90;99.90;;;;;;5051955;28;20569;-71
2023/09/19 04:40:44;;;;;;;3.03;2.20;;;16.90;99.90;;;;;;5050062;28;20476;-71
2023/09/19 04:43:10;;;;;;;2.53;2.33;;;16.80;99.90;;;;;;5045254;28;20478;-72
2023/09/19 04:45:38;;;;;;;2.50;2.30;;;16.80;99.90;;;;;;5051814;28;20174;-72
2023/09/19 04:48:03;;;;;;;2.80;2.10;;;16.80;99.90;;;;;;5051892;28;20177;-71
2023/09/19 04:50:29;;;;;;;2.70;2.17;;;16.70;99.90;;;;;;5048474;28;20467;-70
2023/09/19 04:52:55;;;;;;;2.20;2.00;;;16.80;99.90;;;;;;5051304;28;20410;-70
2023/09/19 04:55:21;;;;;;;4.07;2.20;;;16.70;99.90;;;;;;5051647;28;20284;-71
2023/09/19 04:57:48;;;;;;;2.80;1.97;;;16.70;99.90;;;;;;5051632;28;20364;-72
2023/09/19 05:00:19;;;;;;;3.67;2.73;;;16.70;99.90;;;;;;5048452;28;20186;-72
2023/09/19 05:02:46;;;;;;;3.00;1.70;;;16.70;99.90;;;;;;5051273;28;20524;-71
2023/09/19 05:05:12;;;;;;;4.43;2.00;;;16.60;99.90;;;;;;5051423;28;20647;-70
2023/09/19 05:07:42;;;;;;;1.83;1.73;;;16.60;99.90;;;;;;5051329;28;20414;-71
2023/09/19 05:10:08;;;;;;;2.60;1.63;;;16.70;99.90;;;;;;5051174;28;20433;-71
2023/09/19 05:12:37;;;;;;;2.70;1.87;;;16.60;99.90;;;;;;5048305;28;20453;-70
2023/09/19 05:15:04;;;;;;;2.60;1.90;;;16.60;99.90;;;;;;5042501;28;20894;-71
2023/09/19 05:17:31;;;;;;;2.87;1.97;;;16.60;99.90;;;;;;5051000;28;20416;-71
2023/09/19 05:20:29;;;;;;;4.73;1.90;;;16.60;99.90;;;;;;5051070;28;20490;-71
2023/09/19 05:22:43;;;;;;;4.03;1.77;;;16.60;99.90;;;;;;5050108;28;20513;-71
2023/09/19 05:25:10;;;;;;;2.23;1.90;;;16.60;99.90;;;;;;5051166;28;20431;-71
2023/09/19 05:27:35;;;;;;;6.00;2.30;;;16.70;99.90;;;;;;5049592;28;20226;-71
2023/09/19 05:30:01;;;;;;;7.80;2.10;;;16.60;99.90;;;;;;5049091;28;20449;-72
2023/09/19 05:32:27;;;;;;;4.57;1.93;;;16.60;99.90;;;;;;5050401;28;20173;-72
2023/09/19 05:34:56;;;;;;;3.00;2.70;;;16.60;99.90;;;;;;5050554;28;20268;-72
2023/09/19 05:37:23;;;;;;;4.90;1.80;;;16.60;99.90;;;;;;5050948;28;20534;-72
2023/09/19 05:39:49;;;;;;;4.60;1.70;;;16.70;99.90;;;;;;5050788;28;20836;-72
2023/09/19 05:42:14;;;;;;;2.60;2.00;;;16.70;99.90;;;;;;5051038;28;20410;-71
2023/09/19 05:44:40;;;;;;;5.80;1.80;;;16.70;99.90;;;;;;5050766;28;20230;-71
2023/09/19 05:47:08;;;;;;;1.70;1.60;;;16.70;99.90;;;;;;5049344;28;20248;-71
2023/09/19 05:49:37;;;;;;;2.73;2.17;;;16.80;99.90;;;;;;5050332;28;20204;-71
2023/09/19 05:52:05;;;;;;;2.07;1.87;;;16.80;99.90;;;;;;5050086;28;20887;-72
2023/09/19 05:54:30;;;;;;;6.43;2.47;;;16.90;99.90;;;;;;5050749;28;20419;-71
2023/09/19 05:56:57;;;;;;;6.30;2.50;;;16.90;99.90;;;;;;5048977;28;20488;-72
2023/09/19 05:59:23;;;;;;;3.00;1.80;;;16.90;99.90;;;;;;5050348;28;20207;-71
2023/09/19 06:01:52;;;;;;;2.53;1.50;;;16.90;99.90;;;;;;5048891;28;20483;-74
2023/09/19 06:04:19;;;;;;;2.30;1.53;;;17.10;99.90;;;;;;5050132;28;20428;-73
2023/09/19 06:06:44;;;;;;;3.07;1.80;;;17.10;99.90;;;;;;5048809;28;20421;-71
2023/09/19 06:09:10;;;;;;;2.33;2.13;;;17.30;99.90;;;;;;5048879;28;22264;-75
2023/09/19 06:11:36;;;;;;;2.17;1.60;;;17.40;99.90;;;;;;5051016;28;20454;-73
2023/09/19 06:14:03;;;;;;;2.47;1.63;;;17.30;99.90;;;;;;5050954;28;20180;-76
2023/09/19 06:16:29;;;;;;;6.57;2.33;;;17.50;99.90;;;;;;5050663;28;20208;-73
2023/09/19 06:18:56;;;;;;;2.93;2.47;;;17.60;99.90;;;;;;5049986;28;20467;-72
2023/09/19 06:21:24;;;;;;;3.33;3.03;;;17.80;99.90;;;;;;5050248;28;20930;-72
2023/09/19 06:23:50;;;;;;;5.03;3.77;;;18.00;99.90;;;;;;5046937;28;20491;-74
2023/09/19 06:26:16;;;;;;;8.40;3.20;;;18.00;99.90;;;;;;5050094;28;20869;-73
2023/09/19 06:28:42;;;;;;;4.13;2.10;;;18.00;99.90;;;;;;5050551;28;20200;-72
2023/09/19 06:31:09;;;;;;;2.33;1.90;;;17.90;99.90;;;;;;5041705;28;20249;-72
2023/09/19 06:33:39;;;;;;;4.83;3.53;;;18.10;99.90;;;;;;5047234;28;20460;-72
2023/09/19 06:36:05;;;;;;;2.90;2.13;;;18.20;99.90;;;;;;5060788;28;20424;-72
2023/09/19 06:38:34;;;;;;;4.50;3.07;;;18.60;99.90;;;;;;5049831;28;20459;-71
2023/09/19 06:41:01;;;;;;;4.90;4.20;;;18.50;99.90;;;;;;5049658;28;20462;-70
2023/09/19 06:43:28;;;;;;;13.50;11.20;;;19.20;99.90;;;;;;5069364;28;20414;-71
2023/09/19 06:45:54;;;;;;;17.97;15.13;;;19.50;99.90;;;;;;5069189;28;20523;-71
2023/09/19 06:48:21;;;;;;;7.43;5.60;;;20.00;99.90;;;;;;5083504;22;20487;-70
2023/09/19 06:50:48;;;;;;;5.67;3.93;;;19.60;99.90;;;;;;5018131;28;20423;-70
2023/09/19 06:53:13;;;;;;;5.70;3.87;;;19.30;99.90;;;;;;5011322;28;20432;-69
2023/09/19 06:55:40;;;;;;;4.30;3.10;;;19.30;99.90;;;;;;5019748;28;20431;-69
2023/09/19 06:58:06;;;;;;;3.80;3.10;;;20.40;99.90;;;;;;5041183;28;20210;-69
2023/09/19 07:00:36;;;;;;;5.63;4.13;;;20.00;99.90;;;;;;5051047;28;20516;-71
2023/09/19 07:03:05;;;;;;;6.60;3.10;;;21.30;99.90;;;;;;5049380;28;20420;-69
2023/09/19 07:05:31;;;;;;;3.03;2.30;;;21.60;99.90;;;;;;5050512;28;20561;-70
2023/09/19 07:08:01;;;;;;;4.30;3.20;;;21.10;99.90;;;;;;5043480;28;20441;-70
2023/09/19 07:10:30;;;;;;;2.67;2.07;;;21.60;99.90;;;;;;5050872;28;20426;-70
2023/09/19 07:13:00;;;;;;;3.37;3.07;;;22.10;99.90;;;;;;5047546;28;20421;-70
2023/09/19 07:15:27;;;;;;;5.43;2.67;;;22.20;99.90;;;;;;5050763;28;20420;-69
2023/09/19 07:17:56;;;;;;;4.90;3.30;;;22.70;99.90;;;;;;5049985;28;20525;-69
2023/09/19 07:20:26;;;;;;;3.57;2.57;;;22.10;99.90;;;;;;5050670;28;20420;-70
2023/09/19 07:22:52;;;;;;;3.23;2.93;;;22.40;99.90;;;;;;5050405;28;20470;-70
2023/09/19 07:25:17;;;;;;;5.67;4.20;;;22.40;99.90;;;;;;5050824;28;20409;-70
2023/09/19 07:27:43;;;;;;;10.17;7.47;;;22.10;99.90;;;;;;5037617;28;20217;-72
2023/09/19 07:30:11;;;;;;;14.30;11.70;;;21.90;99.90;;;;;;5048669;28;20263;-73
2023/09/19 07:32:38;;;;;;;7.63;5.23;;;21.70;99.90;;;;;;5050381;28;20175;-70
2023/09/19 07:35:05;;;;;;;3.97;3.20;;;22.40;99.90;;;;;;5050382;28;21112;-70
2023/09/19 07:37:33;;;;;;;3.57;2.50;;;21.00;99.90;;;;;;5050209;28;20429;-70
2023/09/19 07:40:00;;;;;;;4.03;1.80;;;21.00;99.90;;;;;;5050059;28;20478;-69
2023/09/19 07:42:26;;;;;;;6.73;2.87;;;20.30;99.90;;;;;;5039577;28;20418;-70
2023/09/19 07:44:53;;;;;;;5.70;2.93;;;20.40;99.90;;;;;;5047007;28;20427;-69
2023/09/19 07:47:22;;;;;;;7.63;3.13;;;20.00;99.90;;;;;;5053695;28;20415;-69
2023/09/19 07:49:48;;;;;;;5.47;2.77;;;20.00;99.90;;;;;;5053679;28;20464;-69
2023/09/19 07:52:13;;;;;;;5.40;2.97;;;20.00;99.90;;;;;;5053480;28;20416;-68
2023/09/19 07:54:41;;;;;;;5.20;2.80;;;20.20;99.90;;;;;;5054125;28;20587;-70
2023/09/19 07:57:07;;;;;;;2.77;2.50;;;20.60;99.90;;;;;;5053544;28;20225;-68
2023/09/19 07:59:32;;;;;;;3.40;1.93;;;21.10;99.90;;;;;;5048958;28;20517;-68
2023/09/19 08:01:58;;;;;;;3.90;3.27;;;20.40;99.90;;;;;;5051213;28;20229;-69
2023/09/19 08:04:25;;;;;;;4.90;3.60;;;21.30;99.90;;;;;;5053633;28;20182;-69
2023/09/19 08:06:51;;;;;;;4.50;2.40;;;21.50;99.90;;;;;;5053319;28;20198;-69
2023/09/19 08:09:20;;;;;;;2.30;2.10;;;21.50;99.90;;;;;;5053246;28;20431;-69
2023/09/19 08:11:47;;;;;;;5.03;2.23;;;20.80;99.90;;;;;;5053599;28;20891;-69
2023/09/19 08:14:14;;;;;;;3.97;2.40;;;20.40;99.90;;;;;;5045111;28;20454;-72
2023/09/19 08:16:40;;;;;;;4.43;2.80;;;20.50;99.90;;;;;;5050296;28;20876;-71
2023/09/19 08:19:05;;;;;;;6.13;3.20;;;20.80;99.90;;;;;;5053062;28;20471;-69
2023/09/19 08:21:32;;;;;;;5.50;3.77;;;20.50;99.90;;;;;;5043234;28;20246;-69
2023/09/19 08:23:57;;;;;;;4.90;3.03;;;20.40;99.90;;;;;;5052974;28;20167;-71
2023/09/19 08:26:24;;;;;;;4.53;3.10;;;20.50;99.90;;;;;;5053082;28;20412;-71
2023/09/19 08:28:51;;;;;;;7.30;3.60;;;20.80;99.90;;;;;;5053054;28;20245;-68
2023/09/19 08:31:16;;;;;;;5.50;3.70;;;20.50;99.90;;;;;;5053049;28;20459;-69
2023/09/19 08:33:44;;;;;;;4.17;2.20;;;20.50;99.90;;;;;;5053367;28;20440;-71
2023/09/19 08:36:10;;;;;;;5.80;2.70;;;20.10;99.90;;;;;;5052898;28;20684;-69
2023/09/19 08:38:36;;;;;;;3.57;2.13;;;20.40;99.90;;;;;;5048763;28;20463;-69
2023/09/19 08:41:07;;;;;;;4.70;3.17;;;20.50;99.90;;;;;;5046050;28;20930;-69
2023/09/19 08:43:34;;;;;;;6.20;2.67;;;20.70;99.90;;;;;;5052713;28;20418;-70
2023/09/19 08:46:05;;;;;;;4.37;2.77;;;20.70;99.90;;;;;;5052604;28;20417;-69
2023/09/19 08:48:32;;;;;;;5.10;2.40;;;20.50;99.90;;;;;;5052357;28;20864;-70
2023/09/19 08:51:03;;;;;;;4.23;3.20;;;20.70;99.90;;;;;;5052250;28;20447;-70
2023/09/19 08:53:50;;;;;;;7.80;4.30;;;21.00;99.90;;;;;;5040268;28;20435;-70
2023/09/19 08:56:18;;;;;;;8.20;4.00;;;20.90;99.90;;;;;;5051780;28;20471;-69
2023/09/19 08:58:53;;;;;;;6.57;4.60;;;21.50;99.90;;;;;;5052476;28;20510;-70
2023/09/19 09:01:24;;;;;;;6.50;3.57;;;22.40;99.90;;;;;;5036418;28;20428;-71
2023/09/19 09:03:52;;;;;;;2.40;2.13;;;22.40;99.90;;;;;;5052529;28;20477;-69
2023/09/19 09:06:23;;;;;;;5.90;2.93;;;21.30;99.90;;;;;;5052427;28;20755;-70
2023/09/19 09:08:50;;;;;;;2.97;1.83;;;21.70;99.90;;;;;;5046499;28;20516;-70
2023/09/19 09:11:17;;;;;;;5.63;2.33;;;21.50;99.90;;;;;;5033450;28;20738;-70
2023/09/19 09:13:47;;;;;;;5.60;2.03;;;22.50;99.90;;;;;;5035794;28;20428;-70
2023/09/19 09:16:18;;;;;;;4.30;3.20;;;22.80;99.90;;;;;;5051434;28;20458;-70
2023/09/19 09:18:45;;;;;;;3.40;2.23;;;22.60;99.90;;;;;;5049990;28;20514;-74
2023/09/19 09:21:11;;;;;;;3.73;2.13;;;22.90;99.90;;;;;;5050143;28;20439;-71
2023/09/19 09:23:36;;;;;;;3.67;2.03;;;22.80;99.90;;;;;;5037143;28;20882;-70
2023/09/19 09:26:02;;;;;;;4.10;2.10;;;23.20;99.90;;;;;;5047993;28;20414;-69
2023/09/19 09:28:30;;;;;;;7.70;2.37;;;23.10;99.90;;;;;;5046220;28;20201;-72
2023/09/19 09:31:02;;;;;;;5.80;2.57;;;22.70;99.90;;;;;;5049490;28;20424;-72
2023/09/19 09:33:30;;;;;;;2.23;2.00;;;22.70;99.90;;;;;;5041967;28;20442;-72
2023/09/19 09:36:02;;;;;;;4.10;2.63;;;22.60;99.90;;;;;;5041572;28;20410;-72
2023/09/19 09:38:33;;;;;;;4.43;2.60;;;22.90;99.90;;;;;;5051603;28;20457;-71
2023/09/19 09:43:36;;;;;;;5.13;2.03;;;21.90;99.90;;;;;;5052023;28;20408;-71
2023/09/19 09:49:14;;;;;;;3.40;2.47;;;22.10;99.90;;;;;;5049690;28;20648;-71
2023/09/19 09:51:48;;;;;;;4.80;3.07;;;22.10;99.90;;;;;;5051575;28;20755;-70
2023/09/19 09:54:20;;;;;;;9.00;5.73;;;22.00;99.90;;;;;;5051766;28;20527;-71
2023/09/19 09:56:59;;;;;;;4.43;3.50;;;22.70;99.90;;;;;;5051680;28;20410;-71
2023/09/19 09:59:51;;;;;;;8.23;2.57;;;22.30;99.90;;;;;;5051097;28;20452;-69
2023/09/19 10:02:25;;;;;;;5.00;2.20;;;21.50;99.90;;;;;;5051057;28;20407;-71
2023/09/19 10:04:59;;;;;;;6.60;2.90;;;21.30;99.90;;;;;;5041929;28;20494;-70
2023/09/19 10:07:28;;;;;;;21.70;7.17;;;21.60;99.90;;;;;;5039914;28;20934;-71
2023/09/19 10:09:59;;;;;;;8.67;3.00;;;21.30;99.90;;;;;;5047523;28;20408;-69
2023/09/19 10:12:27;;;;;;;3.30;2.80;;;21.20;99.90;;;;;;5036369;28;20413;-71
2023/09/19 10:14:53;;;;;;;15.83;10.53;;;21.50;99.90;;;;;;5051204;28;20422;-70
2023/09/19 10:17:20;;;;;;;3.57;2.20;;;21.80;99.90;;;;;;5037521;28;20927;-72
2023/09/19 10:19:57;;;;;;;5.20;3.43;;;21.20;99.90;;;;;;5046156;28;20798;-69
2023/09/19 10:22:24;;;;;;;5.73;3.93;;;21.30;99.90;;;;;;5029506;28;20402;-69
2023/09/19 10:24:52;;;;;;;7.10;4.57;;;21.30;99.90;;;;;;5050708;28;20886;-68
2023/09/19 10:27:20;;;;;;;11.63;6.03;;;21.80;99.90;;;;;;5034161;28;20832;-71
2023/09/19 10:29:50;;;;;;;5.63;2.50;;;21.50;99.90;;;;;;5035015;28;20456;-70
2023/09/19 10:32:19;;;;;;;7.17;6.30;;;21.60;99.90;;;;;;5049845;28;20419;-70
2023/09/19 10:34:47;;;;;;;8.80;5.93;;;21.70;99.90;;;;;;5047742;28;20463;-71
2023/09/19 10:37:15;;;;;;;4.63;2.73;;;21.70;99.90;;;;;;5050875;28;20877;-71
2023/09/19 10:39:42;;;;;;;4.40;2.70;;;21.60;99.90;;;;;;5049364;28;20517;-69
2023/09/19 10:42:15;;;;;;;2.80;2.47;;;21.10;99.90;;;;;;5042578;28;20426;-69
2023/09/19 10:44:44;;;;;;;3.40;2.10;;;21.10;99.90;;;;;;5050881;28;20410;-69
2023/09/19 10:47:11;;;;;;;8.50;5.60;;;20.90;99.90;;;;;;5048909;28;20414;-69
2023/09/19 10:49:46;;;;;;;9.37;3.57;;;20.80;99.90;;;;;;5045221;28;20964;-69
2023/09/19 10:52:21;;;;;;;7.37;4.30;;;21.20;99.90;;;;;;5038597;28;20778;-69
2023/09/19 10:54:51;;;;;;;5.60;2.20;;;21.20;99.90;;;;;;5050845;28;20412;-69
2023/09/19 10:57:28;;;;;;;5.63;3.30;;;20.90;99.90;;;;;;5047460;28;20453;-69
2023/09/19 11:00:23;;;;;;;4.50;2.70;;;21.00;99.90;;;;;;5050474;28;20548;-70
2023/09/19 11:03:21;;;;;;;8.23;3.93;;;20.60;99.90;;;;;;5050435;28;20421;-70
2023/09/19 11:06:19;;;;;;;4.70;3.20;;;20.90;99.90;;;;;;5050461;28;20404;-71
2023/09/19 11:08:57;;;;;;;5.00;3.93;;;20.90;99.90;;;;;;5022470;28;20453;-70
2023/09/19 11:11:41;;;;;;;6.80;3.80;;;20.90;99.90;;;;;;5050605;28;20423;-72
2023/09/19 11:14:25;;;;;;;9.10;4.37;;;21.00;99.90;;;;;;5047180;28;20495;-71
2023/09/19 11:17:27;;;;;;;5.40;3.90;;;20.90;99.90;;;;;;5050403;28;20423;-70
2023/09/19 11:22:48;;;;;;;6.30;3.07;;;20.80;99.90;;;;;;5054673;28;21127;-73
2023/09/19 11:25:38;;;;;;;7.60;4.67;;;20.50;99.90;;;;;;5054136;28;20412;-70
2023/09/19 11:28:12;;;;;;;6.00;4.23;;;20.40;99.90;;;;;;5048046;28;20942;-70
2023/09/19 11:30:39;;;;;;;13.07;4.50;;;20.20;99.90;;;;;;5045198;28;20426;-69
2023/09/19 11:33:31;;;;;;;5.27;3.13;;;20.50;99.90;;;;;;5042827;28;20430;-70
2023/09/19 11:36:15;;;;;;;7.93;3.63;;;20.70;99.90;;;;;;5049342;28;20472;-73
2023/09/19 11:38:47;;;;;;;12.07;4.03;;;20.90;99.90;;;;;;5054251;28;20853;-70
2023/09/19 11:43:51;;;;;;;5.87;3.80;;;20.90;99.90;;;;;;5053919;28;20466;-69
2023/09/19 11:46:21;;;;;;;5.80;3.60;;;20.80;99.90;;;;;;5052556;28;20419;-71
2023/09/19 11:48:49;;;;;;;4.43;2.60;;;20.90;99.90;;;;;;5050617;28;20480;-70
2023/09/19 11:51:21;;;;;;;4.20;3.00;;;20.60;99.90;;;;;;5053730;28;20414;-73
2023/09/19 11:53:48;;;;;;;5.57;3.33;;;20.70;99.90;;;;;;5045645;28;20618;-70
2023/09/19 11:56:17;;;;;;;6.37;3.20;;;20.80;99.90;;;;;;5042285;28;20972;-70
2023/09/19 11:58:43;;;;;;;5.63;3.37;;;20.80;99.90;;;;;;5051641;28;20468;-70
2023/09/19 12:01:14;;;;;;;6.87;3.37;;;20.70;99.90;;;;;;5045692;28;20460;-70
2023/09/19 12:03:47;;;;;;;5.50;2.77;;;20.90;99.90;;;;;;5053523;28;20420;-70
2023/09/19 12:06:14;;;;;;;7.30;4.70;;;20.80;99.90;;;;;;5050329;28;20415;-71
2023/09/19 12:08:46;;;;;;;6.63;4.03;;;20.90;99.90;;;;;;5047712;28;20421;-72
2023/09/19 12:11:16;;;;;;;8.80;3.53;;;21.30;99.90;;;;;;5053566;28;20423;-71
2023/09/19 12:13:44;;;;;;;4.10;2.70;;;21.00;99.90;;;;;;5053417;28;20449;-69
2023/09/19 12:16:17;;;;;;;6.00;3.50;;;20.80;99.90;;;;;;5045146;28;20512;-70
2023/09/19 12:18:44;;;;;;;6.77;5.57;;;20.80;99.90;;;;;;5053055;28;20448;-70
2023/09/19 12:21:31;;;;;;;7.30;4.00;;;21.00;99.90;;;;;;5049446;28;20445;-69
2023/09/19 12:24:04;;;;;;;4.37;3.10;;;21.20;99.90;;;;;;5057035;28;20897;-70
2023/09/19 12:26:39;;;;;;;5.57;4.27;;;21.30;99.90;;;;;;5053468;28;20422;-69
2023/09/19 12:29:12;;;;;;;8.00;4.47;;;21.30;99.90;;;;;;5053621;28;20967;-70
2023/09/19 12:31:51;;;;;;;6.13;2.40;;;21.40;99.90;;;;;;5051768;28;20785;-68
2023/09/19 12:34:27;;;;;;;4.80;3.00;;;21.20;99.90;;;;;;5053637;28;20939;-69
2023/09/19 12:37:12;;;;;;;5.87;2.77;;;21.30;99.90;;;;;;5053219;28;20416;-68
2023/09/19 12:39:52;;;;;;;4.97;2.97;;;21.40;99.90;;;;;;5049213;28;20460;-69
2023/09/19 12:42:31;;;;;;;5.27;3.30;;;21.40;99.90;;;;;;5052359;28;20421;-69
2023/09/19 12:44:57;;;;;;;6.03;3.80;;;21.60;99.90;;;;;;5051694;28;20414;-69
2023/09/19 12:47:24;;;;;;;3.67;2.10;;;21.70;99.90;;;;;;5053030;28;20411;-68
2023/09/19 12:50:18;;;;;;;6.60;3.97;;;21.50;99.90;;;;;;5052752;28;20504;-69
2023/09/19 12:52:50;;;;;;;5.70;3.53;;;21.50;99.90;;;;;;5042795;28;20776;-69
2023/09/19 12:55:22;;;;;;;5.17;3.20;;;21.60;99.90;;;;;;5049271;28;20466;-69
2023/09/19 12:58:09;;;;;;;4.83;2.90;;;21.30;99.90;;;;;;5052402;28;20438;-69
2023/09/19 13:00:36;;;;;;;7.97;3.80;;;21.20;99.90;;;;;;5041963;28;20747;-69
2023/09/19 13:03:16;;;;;;;4.20;2.90;;;21.50;99.90;;;;;;5047937;28;20420;-68
2023/09/19 13:05:53;;;;;;;3.63;3.30;;;21.40;99.90;;;;;;5051938;28;20419;-69
2023/09/19 13:08:32;;;;;;;5.43;2.77;;;21.50;99.90;;;;;;5052195;28;20473;-69
2023/09/19 13:11:14;;;;;;;2.67;2.23;;;21.60;99.90;;;;;;5052447;28;20905;-69